Bedford, Michigan
Current Conditions -  °F | °C
As of 11:53 AM on Thursday 30 Oct 2014 (Local Time) from KBTL Reporting Station
Overcast Overcast  
Wind Chill: 43°   Ceiling: 4200
Heat Index: 47°   Visibility: 10mi
Dew Point: 37°   Wind: 8mph
Humidity: 68%   Direction: 230°SW
Pressure: 30.13"   Gusts: NA
Location:  42.4°N, 85.23°W
Report Text: KBTL 301553Z 23007KT 10SM OVC042 08/03 A3013 RMK AO2 SLP207 T00830028
Loading
Personal Weather Stations






























Interactive Weather Map
Tropical Storm Tracking
New forecast layout! Learn more

10-Day Weather Forecast

Advertisements
Track Severe Weather on mobile